createdAt,value
2023-04-27T00:01:00.317Z,101148.41
2023-04-27T00:03:27.387Z,101265.44
2023-04-27T00:05:53.989Z,101229.94
2023-04-27T00:08:20.466Z,101264.78
2023-04-27T00:10:46.839Z,101244.09
2023-04-27T00:13:13.182Z,101266.66
2023-04-27T00:15:39.599Z,101110.63
2023-04-27T00:18:06.189Z,101159.06
2023-04-27T00:20:33.817Z,101258.69
2023-04-27T00:23:00.248Z,101249.13
2023-04-27T00:25:26.686Z,101288.22
2023-04-27T00:27:53.206Z,101270.16
2023-04-27T00:30:20.092Z,101292.69
2023-04-27T00:32:46.594Z,101292.66
2023-04-27T00:35:13.113Z,101308.25
2023-04-27T00:37:39.625Z,101272.56
2023-04-27T00:40:07.831Z,101149.53
2023-04-27T00:42:34.918Z,101138.22
2023-04-27T00:45:01.563Z,101143.50
2023-04-27T00:47:30.076Z,101177.41
2023-04-27T00:49:56.610Z,101155.69
2023-04-27T00:52:23.018Z,101169.56
2023-04-27T00:54:52.729Z,101187.81
2023-04-27T00:57:19.158Z,101136.75
2023-04-27T00:59:46.109Z,101185.28
2023-04-27T01:02:13.583Z,101195.69
2023-04-27T01:04:40.931Z,101172.28
2023-04-27T01:07:07.302Z,101221.69
2023-04-27T01:09:33.644Z,101251.19
2023-04-27T01:11:59.988Z,101131.69
2023-04-27T01:14:26.326Z,101288.69
2023-04-27T01:16:52.742Z,101287.78
2023-04-27T01:19:19.115Z,101215.81
2023-04-27T01:21:45.614Z,101163.00
2023-04-27T01:24:12.058Z,101286.25
2023-04-27T01:26:38.386Z,101162.16
2023-04-27T01:29:04.714Z,101274.09
2023-04-27T01:31:31.236Z,101298.41
2023-04-27T01:33:57.621Z,101288.00
2023-04-27T01:36:24.025Z,101311.44
2023-04-27T01:38:51.121Z,101261.09
2023-04-27T01:41:17.526Z,101259.41
2023-04-27T01:43:43.877Z,101183.03
2023-04-27T01:46:12.880Z,101325.31
2023-04-27T01:48:40.395Z,101307.13
2023-04-27T01:51:07.142Z,101312.31
2023-04-27T01:53:34.302Z,101314.91
2023-04-27T01:56:00.745Z,101262.88
2023-04-27T01:58:27.764Z,101321.03
2023-04-27T02:00:54.196Z,101301.97
2023-04-27T02:03:20.625Z,101317.56
2023-04-27T02:05:47.929Z,101265.53
2023-04-27T02:08:14.432Z,101273.34
2023-04-27T02:10:41.082Z,101203.03
2023-04-27T02:13:07.522Z,101300.28
2023-04-27T02:15:35.286Z,101280.31
2023-04-27T02:18:03.278Z,101322.00
2023-04-27T02:20:33.179Z,101301.13
2023-04-27T02:22:59.594Z,101300.28
2023-04-27T02:25:25.958Z,101282.06
2023-04-27T02:27:52.330Z,101298.56
2023-04-27T02:30:19.335Z,101263.84
2023-04-27T02:32:46.464Z,101282.09
2023-04-27T02:35:13.034Z,101320.28
2023-04-27T02:37:39.456Z,101289.88
2023-04-27T02:40:07.939Z,101273.38
2023-04-27T02:42:34.300Z,101244.72
2023-04-27T02:45:00.733Z,101276.00
2023-04-27T02:47:27.326Z,101171.84
2023-04-27T02:49:53.653Z,101284.63
2023-04-27T02:52:20.020Z,101288.97
2023-04-27T02:54:46.354Z,101183.94
2023-04-27T02:57:12.680Z,101255.09
2023-04-27T02:59:39.466Z,101249.88
2023-04-27T03:02:05.859Z,101272.47
2023-04-27T03:04:32.248Z,101278.56
2023-04-27T03:06:58.681Z,101295.06
2023-04-27T03:09:25.177Z,101203.94
2023-04-27T03:11:51.546Z,101242.13
2023-04-27T03:14:17.842Z,101242.13
2023-04-27T03:16:44.194Z,101163.19
2023-04-27T03:19:10.627Z,101194.41
2023-04-27T03:21:37.050Z,101197.88
2023-04-27T03:24:03.659Z,101234.34
2023-04-27T03:26:30.050Z,101288.16
2023-04-27T03:28:56.355Z,101296.84
2023-04-27T03:31:22.847Z,101293.38
2023-04-27T03:33:49.388Z,101249.94
2023-04-27T03:36:15.927Z,101286.41
2023-04-27T03:38:42.380Z,101258.63
2023-04-27T03:41:08.785Z,101147.59
2023-04-27T03:43:35.119Z,101197.88
2023-04-27T03:46:01.585Z,101238.69
2023-04-27T03:48:28.007Z,101270.78
2023-04-27T03:50:54.326Z,101295.09
2023-04-27T03:53:20.659Z,101253.44
2023-04-27T03:55:47.665Z,101269.91
2023-04-27T03:58:14.085Z,101275.09
2023-04-27T04:00:40.691Z,101241.22
2023-04-27T04:03:07.793Z,101222.13
2023-04-27T04:05:34.791Z,101301.09
2023-04-27T04:08:01.176Z,101284.63
2023-04-27T04:10:27.759Z,101306.31
2023-04-27T04:12:54.182Z,101268.97
2023-04-27T04:15:20.705Z,101324.56
2023-04-27T04:17:47.627Z,101334.94
2023-04-27T04:20:14.134Z,101222.94
2023-04-27T04:22:40.527Z,101329.72
2023-04-27T04:25:07.704Z,101185.50
2023-04-27T04:27:34.022Z,101289.72
2023-04-27T04:30:00.714Z,101315.75
2023-04-27T04:32:30.016Z,101315.75
2023-04-27T04:34:56.997Z,101333.09
2023-04-27T04:37:23.564Z,101241.91
2023-04-27T04:39:50.236Z,101333.97
2023-04-27T04:42:16.641Z,101274.03
2023-04-27T04:44:43.011Z,101293.97
2023-04-27T04:47:12.273Z,101234.84
2023-04-27T04:49:38.627Z,101198.38
2023-04-27T04:52:05.215Z,101210.50
2023-04-27T04:54:31.686Z,101233.00
2023-04-27T04:57:03.401Z,101323.50
2023-04-27T04:59:33.998Z,101298.34
2023-04-27T05:02:00.685Z,101202.84
2023-04-27T05:04:27.542Z,101288.03
2023-04-27T05:06:54.013Z,101202.94
2023-04-27T05:09:20.439Z,101199.53
2023-04-27T05:11:46.803Z,101193.44
2023-04-27T05:14:13.214Z,101205.59
2023-04-27T05:16:39.629Z,101248.16
2023-04-27T05:19:07.166Z,101232.56
2023-04-27T05:21:33.628Z,101166.56
2023-04-27T05:24:02.741Z,101221.31
2023-04-27T05:26:29.105Z,101211.75
2023-04-27T05:28:55.574Z,101329.81
2023-04-27T05:31:22.345Z,101344.59
2023-04-27T05:33:49.928Z,101322.00
2023-04-27T05:36:16.527Z,101338.53
2023-04-27T05:38:43.357Z,101343.75
2023-04-27T05:41:09.838Z,101209.19
2023-04-27T05:43:38.734Z,101350.69
2023-04-27T05:46:05.445Z,101135.44
2023-04-27T05:48:31.849Z,101349.78
2023-04-27T05:51:03.413Z,101216.97
2023-04-27T05:53:30.853Z,101232.59
2023-04-27T05:56:01.182Z,101351.56
2023-04-27T05:58:27.774Z,101237.81
2023-04-27T06:00:54.681Z,101257.78
2023-04-27T06:03:21.811Z,101338.50
2023-04-27T06:05:54.970Z,101218.69
2023-04-27T06:08:26.921Z,101284.63
2023-04-27T06:10:53.855Z,101282.91
2023-04-27T06:13:20.394Z,101341.94
2023-04-27T06:15:46.918Z,101360.16
2023-04-27T06:18:13.793Z,101383.59
2023-04-27T06:20:40.433Z,101322.81
2023-04-27T06:23:07.128Z,101367.94
2023-04-27T06:25:34.595Z,101242.94
2023-04-27T06:28:01.221Z,101354.00
2023-04-27T06:30:27.843Z,101381.78
2023-04-27T06:32:54.251Z,101339.22
2023-04-27T06:35:21.761Z,101333.13
2023-04-27T06:37:48.130Z,101366.06
2023-04-27T06:40:14.744Z,101346.97
2023-04-27T06:42:41.128Z,101374.72
2023-04-27T06:45:07.948Z,101277.53
2023-04-27T06:47:34.322Z,101305.25
2023-04-27T06:50:00.672Z,101249.66
2023-04-27T06:52:27.220Z,101300.75
2023-04-27T06:54:54.125Z,101351.03
2023-04-27T06:57:20.447Z,101348.34
2023-04-27T06:59:46.813Z,101336.16
2023-04-27T07:02:13.343Z,101356.03
2023-04-27T07:04:39.985Z,101380.34
2023-04-27T07:07:06.340Z,101329.16
2023-04-27T07:09:32.907Z,101355.13
2023-04-27T07:12:01.111Z,101349.88
2023-04-27T07:14:27.443Z,101349.78
2023-04-27T07:16:53.805Z,101351.50
2023-04-27T07:19:20.386Z,101334.94
2023-04-27T07:21:47.990Z,101357.59
2023-04-27T07:24:14.703Z,101360.19
2023-04-27T07:26:41.362Z,101309.72
2023-04-27T07:29:22.888Z,101322.69
2023-04-27T07:31:52.881Z,101359.91
2023-04-27T07:34:19.442Z,101269.75
2023-04-27T07:36:45.909Z,101318.19
2023-04-27T07:39:12.791Z,101258.34
2023-04-27T07:41:39.354Z,101334.63
2023-04-27T07:44:05.678Z,101340.66
2023-04-27T07:46:32.306Z,101326.69
2023-04-27T07:48:59.887Z,101304.13
2023-04-27T07:51:28.634Z,101288.47
2023-04-27T07:53:55.595Z,101345.50
2023-04-27T07:56:22.063Z,101327.31
2023-04-27T07:58:48.394Z,101329.69
2023-04-27T08:01:14.778Z,101218.72
2023-04-27T08:03:41.354Z,101351.31
2023-04-27T08:06:08.237Z,101261.88
2023-04-27T08:08:34.987Z,101144.97
2023-04-27T08:11:01.755Z,101342.19
2023-04-27T08:13:28.194Z,101254.56
2023-04-27T08:15:58.388Z,101345.56
2023-04-27T08:18:25.724Z,101300.34
2023-04-27T08:20:52.555Z,101323.63
2023-04-27T08:23:18.985Z,101347.75
2023-04-27T08:25:45.440Z,101331.06
2023-04-27T08:28:13.256Z,101224.44
2023-04-27T08:30:39.656Z,101200.91
2023-04-27T08:33:06.175Z,101201.09
2023-04-27T08:35:32.566Z,101295.84
2023-04-27T08:38:01.329Z,101306.25
2023-04-27T08:40:29.489Z,101241.22
2023-04-27T08:43:01.006Z,101223.50
2023-04-27T08:45:28.563Z,101340.09
2023-04-27T08:47:54.943Z,101167.75
2023-04-27T08:50:24.092Z,101182.16
2023-04-27T08:52:51.920Z,101291.78
2023-04-27T08:55:18.472Z,101255.53
2023-04-27T08:57:58.179Z,101213.66
2023-04-27T09:00:25.969Z,101240.19
2023-04-27T09:02:52.824Z,101320.13
2023-04-27T09:05:22.080Z,101209.22
2023-04-27T09:08:08.002Z,101254.22
2023-04-27T09:10:47.874Z,101179.22
2023-04-27T09:13:14.672Z,101187.66
2023-04-27T09:15:48.606Z,101305.16
2023-04-27T09:18:19.927Z,101211.25
2023-04-27T09:20:48.893Z,101188.81
2023-04-27T09:23:34.922Z,101306.38
2023-04-27T09:26:05.695Z,101267.13
2023-04-27T09:28:32.403Z,101218.69
2023-04-27T09:31:00.709Z,101308.03
2023-04-27T09:33:28.400Z,101201.53
2023-04-27T09:35:56.579Z,101307.03
2023-04-27T09:38:23.735Z,101297.84
2023-04-27T09:40:52.594Z,101303.13
2023-04-27T09:43:19.339Z,101179.09
2023-04-27T09:45:46.337Z,101215.41
2023-04-27T09:48:13.658Z,101197.38
2023-04-27T09:50:42.408Z,101192.56
2023-04-27T09:53:12.039Z,101279.41
2023-04-27T09:55:50.492Z,101291.63
2023-04-27T09:58:43.661Z,101297.16
2023-04-27T10:01:37.306Z,101188.19
2023-04-27T10:04:41.764Z,101288.94
2023-04-27T10:07:15.266Z,101199.88
2023-04-27T10:09:44.846Z,101177.13
2023-04-27T10:12:21.626Z,101269.59
2023-04-27T10:14:58.916Z,101171.03
2023-04-27T10:17:34.014Z,101173.66
2023-04-27T10:20:02.282Z,101265.53
2023-04-27T10:22:42.996Z,101233.09
2023-04-27T10:25:29.756Z,101227.19
2023-04-27T10:27:59.329Z,101255.78
2023-04-27T10:30:31.767Z,101252.78
2023-04-27T10:33:03.976Z,101229.56
2023-04-27T10:35:38.327Z,101202.06
2023-04-27T10:38:22.672Z,101204.13
2023-04-27T10:41:02.615Z,101231.16
2023-04-27T10:43:31.749Z,101227.56
2023-04-27T10:46:39.592Z,101176.88
2023-04-27T10:49:09.729Z,101228.75
2023-04-27T10:54:46.380Z,101160.69
2023-04-27T10:57:13.076Z,101140.00
2023-04-27T10:59:51.296Z,101174.94
2023-04-27T11:02:24.995Z,101172.66
2023-04-27T11:04:51.682Z,101201.63
2023-04-27T11:07:26.430Z,101244.22
2023-04-27T11:09:53.182Z,101067.84
2023-04-27T11:12:19.909Z,101076.75
2023-04-27T11:14:46.546Z,101198.34
2023-04-27T11:17:13.369Z,101154.41
2023-04-27T11:19:47.821Z,101045.88
2023-04-27T11:22:18.834Z,101168.16
2023-04-27T11:24:50.019Z,101232.41
2023-04-27T11:27:17.877Z,101106.53
2023-04-27T11:29:44.854Z,101136.91
2023-04-27T11:32:21.919Z,101146.53
2023-04-27T11:34:53.667Z,101211.44
2023-04-27T11:37:25.354Z,101203.75
2023-04-27T11:39:54.196Z,101196.34
2023-04-27T11:42:26.373Z,101172.81
2023-04-27T11:45:01.099Z,101112.69
2023-04-27T11:47:29.177Z,101155.63
2023-04-27T11:50:01.065Z,101185.16
2023-04-27T11:52:35.742Z,101081.69
2023-04-27T11:55:06.082Z,101200.66
2023-04-27T11:57:34.004Z,101180.00
2023-04-27T12:00:02.135Z,101070.72
2023-04-27T12:02:32.090Z,101019.25
2023-04-27T12:04:59.828Z,101107.09
2023-04-27T12:07:26.917Z,101179.34
2023-04-27T12:09:53.319Z,101176.50
2023-04-27T12:12:22.389Z,101178.97
2023-04-27T12:14:49.902Z,101169.41
2023-04-27T12:17:16.575Z,101097.47
2023-04-27T12:19:43.086Z,101113.19
2023-04-27T12:22:09.664Z,101152.06
2023-04-27T12:24:37.011Z,101012.31
2023-04-27T12:27:04.301Z,101187.78
2023-04-27T12:33:50.113Z,101154.50
2023-04-27T12:40:08.970Z,101135.41
2023-04-27T12:42:35.724Z,101163.88
2023-04-27T12:45:02.143Z,101137.81
2023-04-27T12:47:49.839Z,101146.34
2023-04-27T12:50:15.741Z,101147.09
2023-04-27T12:52:42.135Z,101151.88
2023-04-27T12:55:17.983Z,101127.34
2023-04-27T12:57:53.574Z,101124.25
2023-04-27T13:00:20.526Z,101141.19
2023-04-27T13:02:46.997Z,101044.66
2023-04-27T13:05:13.494Z,101145.25
2023-04-27T13:07:39.885Z,101036.78
2023-04-27T13:10:08.024Z,101027.28
2023-04-27T13:12:34.483Z,101096.31
2023-04-27T13:15:01.015Z,101110.84
2023-04-27T13:17:27.472Z,101144.75
2023-04-27T13:19:55.175Z,101143.50
2023-04-27T13:22:21.585Z,100999.56
2023-04-27T13:24:47.915Z,101094.34
2023-04-27T13:27:14.292Z,101163.22
2023-04-27T13:29:40.760Z,101044.69
2023-04-27T13:32:07.195Z,101140.38
2023-04-27T13:34:33.574Z,101045.84
2023-04-27T13:37:00.171Z,101128.44
2023-04-27T13:39:26.550Z,101127.84
2023-04-27T13:41:53.967Z,101122.25
2023-04-27T13:44:20.347Z,101131.66
2023-04-27T13:46:46.795Z,101120.59
2023-04-27T13:49:13.321Z,101092.13
2023-04-27T13:51:40.517Z,101016.81
2023-04-27T13:54:06.908Z,101050.25
2023-04-27T13:56:33.268Z,101094.16
2023-04-27T13:59:00.273Z,101085.59
2023-04-27T14:01:27.122Z,101080.28
2023-04-27T14:03:53.946Z,101084.75
2023-04-27T14:06:20.579Z,101080.97
2023-04-27T14:08:47.031Z,101009.16
2023-04-27T14:11:13.511Z,100944.72
2023-04-27T14:13:39.848Z,101065.19
2023-04-27T14:16:07.113Z,101032.59
2023-04-27T14:18:33.616Z,101067.47
2023-04-27T14:21:00.076Z,101043.94
2023-04-27T14:23:26.530Z,100964.38
2023-04-27T14:25:53.033Z,100981.75
2023-04-27T14:28:19.350Z,101042.91
2023-04-27T14:30:45.878Z,101040.63
2023-04-27T14:33:12.344Z,101031.66
2023-04-27T14:35:38.807Z,101015.44
2023-04-27T14:38:05.402Z,101036.13
2023-04-27T14:40:32.246Z,101041.84
2023-04-27T14:42:58.818Z,101034.91
2023-04-27T14:45:29.027Z,101021.94
2023-04-27T14:48:00.785Z,100937.84
2023-04-27T14:50:28.088Z,101029.19
2023-04-27T14:52:58.341Z,100944.09
2023-04-27T14:55:24.972Z,101025.59
2023-04-27T14:57:51.424Z,100982.63
2023-04-27T15:00:18.044Z,101008.13
2023-04-27T15:02:44.549Z,101028.41
2023-04-27T15:05:11.025Z,100999.41
2023-04-27T15:07:37.429Z,101030.69
2023-04-27T15:10:04.350Z,101020.63
2023-04-27T15:12:30.699Z,100986.63
2023-04-27T15:14:57.065Z,101014.38
2023-04-27T15:17:23.971Z,100905.63
2023-04-27T15:19:51.618Z,100880.59
2023-04-27T15:22:18.011Z,100999.22
2023-04-27T15:24:44.378Z,100983.22
2023-04-27T15:27:10.979Z,100985.72
2023-04-27T15:29:37.382Z,100966.03
2023-04-27T15:32:04.140Z,100988.50
2023-04-27T15:34:31.005Z,100975.28
2023-04-27T15:36:57.711Z,100908.03
2023-04-27T15:39:24.030Z,100994.81
2023-04-27T15:41:50.340Z,100923.81
2023-04-27T15:44:16.827Z,100978.16
2023-04-27T15:46:43.357Z,100962.31
2023-04-27T15:49:12.297Z,100974.84
2023-04-27T15:51:38.844Z,100937.09
2023-04-27T15:54:05.410Z,100981.13
2023-04-27T15:56:31.918Z,100974.44
2023-04-27T15:58:58.321Z,100959.06
2023-04-27T16:01:25.902Z,100969.72
2023-04-27T16:03:52.428Z,100876.81
2023-04-27T16:06:18.800Z,100975.28
2023-04-27T16:08:45.272Z,100983.47
2023-04-27T16:11:12.946Z,100877.56
2023-04-27T16:13:39.817Z,100945.56
2023-04-27T16:16:08.483Z,100962.91
2023-04-27T16:18:36.481Z,100911.63
2023-04-27T16:21:03.947Z,100869.31
2023-04-27T16:23:30.550Z,100842.41
2023-04-27T16:25:57.297Z,100861.84
2023-04-27T16:28:23.662Z,100948.69
2023-04-27T16:30:52.773Z,100939.88
2023-04-27T16:33:19.817Z,100927.03
2023-04-27T16:35:47.093Z,100921.91
2023-04-27T16:38:13.805Z,100929.56
2023-04-27T16:40:40.406Z,100869.09
2023-04-27T16:43:06.770Z,100907.13
2023-04-27T16:45:34.029Z,100942.38
2023-04-27T16:48:02.059Z,100906.91
2023-04-27T16:50:32.399Z,100851.47
2023-04-27T16:53:06.865Z,100912.44
2023-04-27T16:55:34.352Z,100804.97
2023-04-27T16:58:01.149Z,100834.41
2023-04-27T17:00:28.679Z,100861.16
2023-04-27T17:02:55.492Z,100931.66
2023-04-27T17:05:22.000Z,100909.84
2023-04-27T17:07:48.380Z,100899.56
2023-04-27T17:10:16.427Z,100835.59
2023-04-27T17:12:42.786Z,100833.66
2023-04-27T17:15:10.747Z,100919.09
2023-04-27T17:17:37.210Z,100855.72
2023-04-27T17:20:06.566Z,100831.63
2023-04-27T17:22:33.010Z,100882.38
2023-04-27T17:24:59.401Z,100788.09
2023-04-27T17:27:26.008Z,100825.72
2023-04-27T17:29:54.406Z,100907.47
2023-04-27T17:32:20.896Z,100857.78
2023-04-27T17:34:47.403Z,100838.38
2023-04-27T17:37:14.763Z,100772.59
2023-04-27T17:39:41.454Z,100823.88
2023-04-27T17:42:12.140Z,100868.94
2023-04-27T17:44:41.047Z,100865.53
2023-04-27T17:47:08.298Z,100800.03
2023-04-27T17:49:35.042Z,100889.56
2023-04-27T17:52:01.439Z,100876.28
2023-04-27T17:54:29.928Z,100864.31
2023-04-27T17:56:56.602Z,100882.75
2023-04-27T17:59:23.119Z,100870.53
2023-04-27T18:01:49.621Z,100870.94
2023-04-27T18:04:16.194Z,100891.38
2023-04-27T18:06:42.651Z,100864.69
2023-04-27T18:09:08.974Z,100846.84
2023-04-27T18:11:36.160Z,100845.84
2023-04-27T18:14:02.585Z,100829.88
2023-04-27T18:16:29.219Z,100772.03
2023-04-27T18:18:55.696Z,100858.72
2023-04-27T18:21:22.157Z,100843.13
2023-04-27T18:23:48.595Z,100796.94
2023-04-27T18:26:15.004Z,100846.13
2023-04-27T18:28:41.751Z,100787.50
2023-04-27T18:31:18.213Z,100883.78
2023-04-27T18:33:45.300Z,100729.59
2023-04-27T18:36:11.955Z,100778.25
2023-04-27T18:38:38.652Z,100871.50
2023-04-27T18:41:05.031Z,100737.47
2023-04-27T18:43:34.819Z,100759.59
2023-04-27T18:46:01.201Z,100748.19
2023-04-27T18:48:27.632Z,100775.72
2023-04-27T18:50:54.148Z,100793.63
2023-04-27T18:53:21.110Z,100860.59
2023-04-27T18:55:47.480Z,100838.69
2023-04-27T18:58:13.875Z,100817.25
2023-04-27T19:00:40.453Z,100865.34
2023-04-27T19:03:07.128Z,100844.66
2023-04-27T19:05:33.559Z,100831.81
2023-04-27T19:07:59.991Z,100857.44
2023-04-27T19:10:26.443Z,100858.41
2023-04-27T19:12:53.239Z,100754.53
2023-04-27T19:15:19.629Z,100803.19
2023-04-27T19:17:47.260Z,100887.00
2023-04-27T19:20:16.932Z,100822.03
2023-04-27T19:22:43.312Z,100833.75
2023-04-27T19:25:09.994Z,100855.31
2023-04-27T19:27:36.570Z,100781.59
2023-04-27T19:30:04.229Z,100901.03
2023-04-27T19:32:30.854Z,100790.19
2023-04-27T19:34:58.710Z,100799.13
2023-04-27T19:37:26.067Z,100883.56
2023-04-27T19:39:52.669Z,100807.50
2023-04-27T19:42:19.200Z,100901.31
2023-04-27T19:44:45.834Z,100796.78
2023-04-27T19:47:12.164Z,100840.91
2023-04-27T19:49:38.649Z,100842.25
2023-04-27T19:52:10.330Z,100762.03
2023-04-27T19:54:38.045Z,100821.25
2023-04-27T19:57:04.660Z,100767.47
2023-04-27T19:59:30.989Z,100759.50
2023-04-27T20:02:04.284Z,100836.97
2023-04-27T20:04:31.101Z,100764.13
2023-04-27T20:06:57.562Z,100808.47
2023-04-27T20:09:23.927Z,100771.94
2023-04-27T20:11:50.399Z,100881.03
2023-04-27T20:14:17.049Z,100748.16
2023-04-27T20:16:44.648Z,100755.66
2023-04-27T20:19:11.226Z,100842.88
2023-04-27T20:21:38.085Z,100827.88
2023-04-27T20:24:04.640Z,100791.19
2023-04-27T20:26:31.023Z,100684.97
2023-04-27T20:28:57.363Z,100841.00
2023-04-27T20:31:23.749Z,100816.09
2023-04-27T20:33:50.104Z,100818.56
2023-04-27T20:36:18.313Z,100815.84
2023-04-27T20:38:45.354Z,100847.25
2023-04-27T20:41:12.252Z,100816.97
2023-04-27T20:43:41.637Z,100746.81
2023-04-27T20:46:08.112Z,100679.81
2023-04-27T20:48:34.623Z,100835.38
2023-04-27T20:51:01.084Z,100784.63
2023-04-27T20:53:27.859Z,100784.19
2023-04-27T20:55:54.224Z,100799.09
2023-04-27T20:58:20.696Z,100741.06
2023-04-27T21:00:47.038Z,100693.47
2023-04-27T21:03:13.584Z,100754.06
2023-04-27T21:05:41.117Z,100770.19
2023-04-27T21:08:07.538Z,100790.16
2023-04-27T21:10:35.308Z,100701.03
2023-04-27T21:13:03.138Z,100702.66
2023-04-27T21:15:29.684Z,100700.25
2023-04-27T21:17:56.058Z,100676.63
2023-04-27T21:20:22.456Z,100774.81
2023-04-27T21:22:48.788Z,100747.88
2023-04-27T21:25:15.123Z,100743.03
2023-04-27T21:27:41.618Z,100660.47
2023-04-27T21:30:08.687Z,100755.66
2023-04-27T21:32:35.093Z,100740.88
2023-04-27T21:35:01.578Z,100736.25
2023-04-27T21:37:27.941Z,100718.69
2023-04-27T21:39:54.300Z,100643.44
2023-04-27T21:42:20.674Z,100728.91
2023-04-27T21:44:47.066Z,100705.84
2023-04-27T21:47:13.417Z,100712.88
2023-04-27T21:49:39.779Z,100635.22
2023-04-27T21:52:06.160Z,100693.22
2023-04-27T21:54:32.514Z,100688.78
2023-04-27T21:56:58.879Z,100687.28
2023-04-27T21:59:25.232Z,100695.06
2023-04-27T22:01:51.626Z,100697.75
2023-04-27T22:04:18.295Z,100678.84
2023-04-27T22:06:45.382Z,100604.19
2023-04-27T22:09:12.199Z,100583.00
2023-04-27T22:11:38.760Z,100665.03
2023-04-27T22:14:05.351Z,100666.75
2023-04-27T22:16:31.682Z,100567.50
2023-04-27T22:18:58.413Z,100649.78
2023-04-27T22:21:24.968Z,100649.31
2023-04-27T22:23:51.335Z,100675.84
2023-04-27T22:26:17.828Z,100650.91
2023-04-27T22:28:44.167Z,100653.72
2023-04-27T22:31:10.642Z,100687.34
2023-04-27T22:33:37.135Z,100671.63
2023-04-27T22:36:03.637Z,100706.03
2023-04-27T22:38:29.984Z,100640.00
2023-04-27T22:40:56.332Z,100650.78
2023-04-27T22:43:22.766Z,100670.13
2023-04-27T22:45:49.199Z,100628.06
2023-04-27T22:48:16.216Z,100612.94
2023-04-27T22:50:42.594Z,100639.66
2023-04-27T22:53:09.045Z,100597.31
2023-04-27T22:55:35.447Z,100554.94
2023-04-27T22:58:01.807Z,100630.03
2023-04-27T23:00:28.270Z,100596.81
2023-04-27T23:02:54.794Z,100643.41
2023-04-27T23:05:22.064Z,100629.53
2023-04-27T23:07:50.488Z,100620.97
2023-04-27T23:10:18.714Z,100620.72
2023-04-27T23:12:45.103Z,100629.31
2023-04-27T23:15:11.558Z,100667.44
2023-04-27T23:17:37.993Z,100573.78
2023-04-27T23:20:26.757Z,100590.25
2023-04-27T23:22:54.910Z,100602.28
2023-04-27T23:25:21.599Z,100645.00
2023-04-27T23:27:49.883Z,100633.69
2023-04-27T23:30:17.657Z,100606.88
2023-04-27T23:32:44.060Z,100629.84
2023-04-27T23:35:10.532Z,100572.13
2023-04-27T23:37:36.852Z,100615.09
2023-04-27T23:40:04.167Z,100608.66
2023-04-27T23:42:30.511Z,100577.63
2023-04-27T23:44:57.509Z,100603.38
2023-04-27T23:47:23.826Z,100468.38
2023-04-27T23:49:50.314Z,100472.22
2023-04-27T23:52:16.774Z,100602.78
2023-04-27T23:54:43.160Z,100546.16
2023-04-27T23:57:09.762Z,100452.22
2023-04-27T23:59:36.359Z,100592.97
